createdAt,value
2018-07-26T00:00:00.610Z,4.83
2018-07-26T00:02:28.454Z,5.30
2018-07-26T00:04:56.594Z,5.50
2018-07-26T00:07:24.545Z,5.57
2018-07-26T00:09:52.339Z,4.90
2018-07-26T00:12:20.230Z,5.47
2018-07-26T00:14:47.943Z,5.13
2018-07-26T00:17:15.866Z,5.90
2018-07-26T00:19:43.700Z,5.30
2018-07-26T00:22:11.487Z,5.30
2018-07-26T00:24:39.313Z,6.13
2018-07-26T00:27:07.458Z,5.20
2018-07-26T00:29:36.620Z,5.40
2018-07-26T00:32:04.431Z,5.80
2018-07-26T00:34:32.274Z,5.30
2018-07-26T00:37:00.034Z,5.50
2018-07-26T00:39:27.880Z,5.50
2018-07-26T00:41:55.721Z,5.53
2018-07-26T00:44:23.509Z,5.40
2018-07-26T00:46:51.305Z,5.70
2018-07-26T00:49:19.106Z,5.13
2018-07-26T00:51:46.961Z,5.40
2018-07-26T00:54:14.807Z,5.67
2018-07-26T00:56:42.626Z,5.97
2018-07-26T00:59:10.454Z,5.80
2018-07-26T01:01:38.254Z,6.40
2018-07-26T01:04:06.225Z,4.90
2018-07-26T01:06:33.927Z,5.37
2018-07-26T01:09:01.853Z,5.77
2018-07-26T01:11:29.636Z,5.50
2018-07-26T01:13:57.506Z,5.87
2018-07-26T01:16:25.405Z,5.40
2018-07-26T01:18:53.206Z,6.20
2018-07-26T01:21:21.030Z,6.17
2018-07-26T01:23:48.898Z,5.20
2018-07-26T01:26:16.761Z,5.97
2018-07-26T01:28:44.608Z,5.30
2018-07-26T01:31:12.414Z,6.10
2018-07-26T01:33:40.266Z,6.07
2018-07-26T01:36:08.171Z,5.47
2018-07-26T01:38:35.862Z,5.87
2018-07-26T01:41:03.732Z,5.27
2018-07-26T01:43:52.878Z,5.73
2018-07-26T01:46:21.915Z,6.50
2018-07-26T01:48:49.677Z,6.03
2018-07-26T01:51:17.509Z,5.37
2018-07-26T01:53:45.576Z,5.40
2018-07-26T01:56:13.403Z,6.23
2018-07-26T01:58:41.226Z,5.67
2018-07-26T02:01:09.925Z,5.77
2018-07-26T02:03:38.344Z,5.90
2018-07-26T02:06:06.271Z,5.87
2018-07-26T02:08:34.208Z,5.80
2018-07-26T02:11:02.060Z,6.10
2018-07-26T02:13:30.732Z,6.27
2018-07-26T02:15:58.574Z,6.20
2018-07-26T02:18:26.559Z,6.60
2018-07-26T02:20:54.439Z,7.27
2018-07-26T02:23:22.596Z,5.83
2018-07-26T02:25:50.319Z,5.23
2018-07-26T02:28:18.124Z,5.97
2018-07-26T02:30:46.090Z,5.67
2018-07-26T02:33:14.258Z,6.03
2018-07-26T02:35:42.352Z,5.30
2018-07-26T02:38:10.463Z,5.73
2018-07-26T02:40:38.528Z,5.60
2018-07-26T02:43:06.910Z,5.50
2018-07-26T02:45:34.843Z,6.20
2018-07-26T02:48:02.661Z,5.63
2018-07-26T02:50:30.463Z,6.60
2018-07-26T02:52:58.290Z,6.03
2018-07-26T02:55:26.134Z,6.10
2018-07-26T02:57:54.131Z,5.80
2018-07-26T03:00:21.985Z,5.50
2018-07-26T03:02:50.075Z,5.57
2018-07-26T03:05:17.960Z,5.40
2018-07-26T03:07:45.819Z,6.20
2018-07-26T03:10:13.592Z,4.97
2018-07-26T03:12:41.423Z,5.57
2018-07-26T03:15:10.834Z,5.40
2018-07-26T03:17:39.595Z,5.27
2018-07-26T03:20:07.456Z,6.27
2018-07-26T03:22:35.364Z,5.70
2018-07-26T03:25:03.247Z,6.10
2018-07-26T03:27:31.102Z,5.93
2018-07-26T03:29:58.831Z,5.80
2018-07-26T03:32:26.699Z,5.70
2018-07-26T03:34:54.487Z,5.43
2018-07-26T03:37:22.331Z,5.47
2018-07-26T03:39:50.502Z,5.97
2018-07-26T03:42:18.371Z,5.90
2018-07-26T03:44:46.243Z,5.90
2018-07-26T03:47:14.196Z,6.23
2018-07-26T03:49:41.988Z,5.70
2018-07-26T03:52:09.803Z,5.43
2018-07-26T03:54:37.620Z,5.50
2018-07-26T03:57:05.573Z,5.50
2018-07-26T03:59:33.371Z,5.73
2018-07-26T04:02:01.096Z,5.73
2018-07-26T04:04:28.905Z,5.20
2018-07-26T04:06:56.652Z,4.87
2018-07-26T04:09:24.441Z,5.23
2018-07-26T04:11:52.344Z,5.33
2018-07-26T04:14:20.132Z,5.37
2018-07-26T04:16:47.966Z,5.53
2018-07-26T04:19:15.798Z,6.10
2018-07-26T04:21:43.481Z,6.30
2018-07-26T04:24:11.292Z,5.30
2018-07-26T04:26:39.105Z,6.37
2018-07-26T04:29:06.918Z,6.47
2018-07-26T04:31:34.798Z,6.23
2018-07-26T04:34:02.626Z,5.93
2018-07-26T04:36:30.425Z,5.57
2018-07-26T04:38:58.245Z,6.20
2018-07-26T04:41:26.074Z,5.50
2018-07-26T04:43:53.899Z,5.67
2018-07-26T04:46:21.704Z,5.23
2018-07-26T04:48:49.430Z,5.50
2018-07-26T04:51:17.378Z,5.10
2018-07-26T04:53:45.250Z,6.03
2018-07-26T04:56:13.104Z,5.13
2018-07-26T04:58:40.885Z,5.07
2018-07-26T05:01:08.729Z,5.50
2018-07-26T05:03:36.584Z,5.80
2018-07-26T05:06:04.603Z,5.40
2018-07-26T05:08:32.572Z,5.80
2018-07-26T05:11:00.460Z,5.83
2018-07-26T05:13:28.258Z,5.97
2018-07-26T05:15:56.165Z,5.30
2018-07-26T05:18:24.056Z,6.50
2018-07-26T05:20:51.920Z,6.10
2018-07-26T05:23:19.707Z,5.87
2018-07-26T05:25:47.441Z,6.03
2018-07-26T05:28:15.364Z,6.10
2018-07-26T05:30:43.144Z,6.00
2018-07-26T05:33:10.966Z,6.17
2018-07-26T05:35:38.863Z,6.50
2018-07-26T05:38:06.745Z,6.60
2018-07-26T05:40:34.505Z,5.93
2018-07-26T05:43:02.482Z,5.77
2018-07-26T05:45:30.319Z,6.10
2018-07-26T05:48:02.159Z,5.40
2018-07-26T05:50:29.931Z,5.67
2018-07-26T05:52:57.816Z,6.50
2018-07-26T05:55:26.506Z,6.90
2018-07-26T05:57:54.443Z,5.90
2018-07-26T06:00:22.321Z,6.80
2018-07-26T06:02:50.137Z,5.47
2018-07-26T06:05:18.047Z,5.93
2018-07-26T06:07:45.964Z,5.43
2018-07-26T06:10:16.261Z,5.70
2018-07-26T06:12:44.104Z,4.87
2018-07-26T06:15:12.509Z,5.07
2018-07-26T06:17:40.866Z,5.03
2018-07-26T06:20:10.434Z,4.80
2018-07-26T06:22:38.408Z,4.70
2018-07-26T06:25:06.764Z,3.90
2018-07-26T06:27:34.635Z,4.60
2018-07-26T06:30:02.591Z,3.80
2018-07-26T06:32:30.368Z,3.80
2018-07-26T06:34:58.201Z,4.20
2018-07-26T06:37:26.163Z,3.80
2018-07-26T06:39:54.105Z,3.57
2018-07-26T06:42:21.935Z,3.90
2018-07-26T06:44:49.683Z,3.00
2018-07-26T06:47:17.687Z,3.03
2018-07-26T06:49:45.490Z,3.40
2018-07-26T06:52:13.227Z,3.10
2018-07-26T06:54:41.142Z,3.20
2018-07-26T06:57:08.983Z,3.57
2018-07-26T06:59:42.336Z,3.53
2018-07-26T07:02:10.073Z,4.07
2018-07-26T07:04:37.903Z,3.13
2018-07-26T07:07:05.750Z,3.30
2018-07-26T07:09:33.605Z,3.20
2018-07-26T07:12:01.545Z,3.17
2018-07-26T07:14:29.373Z,3.10
2018-07-26T07:16:57.201Z,3.20
2018-07-26T07:19:24.964Z,2.90
2018-07-26T07:21:52.757Z,3.30
2018-07-26T07:24:21.596Z,3.20
2018-07-26T07:26:50.875Z,3.27
2018-07-26T07:29:18.815Z,2.93
2018-07-26T07:31:46.583Z,3.10
2018-07-26T07:34:14.360Z,3.20
2018-07-26T07:36:42.174Z,3.17
2018-07-26T07:39:11.159Z,3.30
2018-07-26T07:41:38.952Z,3.50
2018-07-26T07:44:07.347Z,3.07
2018-07-26T07:46:35.260Z,3.60
2018-07-26T07:49:03.040Z,3.50
2018-07-26T07:51:30.876Z,3.80
2018-07-26T07:53:58.944Z,3.83
2018-07-26T07:56:26.758Z,3.77
2018-07-26T07:58:54.698Z,4.30
2018-07-26T08:01:22.375Z,3.97
2018-07-26T08:03:50.162Z,3.67
2018-07-26T08:06:18.133Z,4.13
2018-07-26T08:08:46.059Z,3.33
2018-07-26T08:11:13.834Z,3.50
2018-07-26T08:13:41.745Z,4.17
2018-07-26T08:16:09.650Z,3.63
2018-07-26T08:18:37.344Z,3.83
2018-07-26T08:21:05.158Z,3.90
2018-07-26T08:23:33.143Z,3.70
2018-07-26T08:26:00.883Z,4.30
2018-07-26T08:28:28.706Z,4.30
2018-07-26T08:30:56.697Z,4.30
2018-07-26T08:33:24.500Z,4.00
2018-07-26T08:35:52.283Z,4.63
2018-07-26T08:38:20.172Z,4.73
2018-07-26T08:40:48.013Z,4.67
2018-07-26T08:43:15.719Z,5.00
2018-07-26T08:45:43.523Z,4.87
2018-07-26T08:48:11.291Z,5.30
2018-07-26T08:50:39.036Z,4.37
2018-07-26T08:53:06.872Z,5.20
2018-07-26T08:55:34.792Z,5.17
2018-07-26T08:58:02.650Z,5.20
2018-07-26T09:00:30.429Z,5.23
2018-07-26T09:02:58.238Z,4.87
2018-07-26T09:05:26.076Z,5.67
2018-07-26T09:07:53.876Z,5.83
2018-07-26T09:10:21.704Z,5.30
2018-07-26T09:12:49.409Z,6.07
2018-07-26T09:15:17.271Z,5.57
2018-07-26T09:17:45.157Z,6.00
2018-07-26T09:20:13.034Z,5.80
2018-07-26T09:22:40.717Z,6.00
2018-07-26T09:25:08.640Z,5.93
2018-07-26T09:27:36.440Z,6.23
2018-07-26T09:30:05.211Z,6.13
2018-07-26T09:32:32.940Z,6.27
2018-07-26T09:35:00.716Z,6.13
2018-07-26T09:37:28.520Z,6.10
2018-07-26T09:39:56.448Z,6.00
2018-07-26T09:42:24.265Z,6.20
2018-07-26T09:44:52.102Z,6.47
2018-07-26T09:47:19.835Z,6.90
2018-07-26T09:49:47.646Z,6.30
2018-07-26T09:52:15.846Z,7.03
2018-07-26T09:54:43.663Z,6.53
2018-07-26T09:57:11.432Z,7.30
2018-07-26T09:59:39.175Z,7.10
2018-07-26T10:02:07.020Z,7.40
2018-07-26T10:04:34.884Z,7.10
2018-07-26T10:07:02.833Z,6.60
2018-07-26T10:09:30.642Z,7.13
2018-07-26T10:11:58.429Z,7.07
2018-07-26T10:14:27.059Z,6.70
2018-07-26T10:16:54.920Z,7.00
2018-07-26T10:19:22.721Z,7.37
2018-07-26T10:21:50.407Z,6.83
2018-07-26T10:24:18.115Z,7.67
2018-07-26T10:26:45.917Z,7.17
2018-07-26T10:29:13.619Z,7.50
2018-07-26T10:31:41.427Z,6.77
2018-07-26T10:34:09.199Z,6.63
2018-07-26T10:36:36.949Z,6.73
2018-07-26T10:39:07.262Z,7.17
2018-07-26T10:41:35.089Z,7.50
2018-07-26T10:44:02.971Z,7.03
2018-07-26T10:46:30.863Z,7.40
2018-07-26T10:48:58.686Z,7.53
2018-07-26T10:51:26.545Z,6.97
2018-07-26T10:53:54.207Z,6.83
2018-07-26T10:56:22.065Z,6.63
2018-07-26T10:58:50.453Z,6.77
2018-07-26T11:01:18.709Z,7.20
2018-07-26T11:03:46.447Z,6.30
2018-07-26T11:06:14.236Z,7.10
2018-07-26T11:08:42.059Z,6.20
2018-07-26T11:11:09.883Z,6.90
2018-07-26T11:13:37.634Z,6.50
2018-07-26T11:16:05.384Z,6.53
2018-07-26T11:18:33.210Z,6.70
2018-07-26T11:21:00.979Z,7.03
2018-07-26T11:23:28.834Z,7.00
2018-07-26T11:25:56.749Z,7.10
2018-07-26T11:28:24.969Z,6.40
2018-07-26T11:30:52.842Z,7.30
2018-07-26T11:33:20.583Z,7.50
2018-07-26T11:35:48.484Z,6.73
2018-07-26T11:38:16.408Z,7.03
2018-07-26T11:40:44.242Z,6.83
2018-07-26T11:43:12.089Z,7.10
2018-07-26T11:45:39.991Z,6.70
2018-07-26T11:48:07.832Z,7.10
2018-07-26T11:50:35.708Z,7.50
2018-07-26T11:53:03.532Z,7.30
2018-07-26T11:55:31.429Z,6.70
2018-07-26T11:57:59.298Z,7.20
2018-07-26T12:00:27.115Z,6.77
2018-07-26T12:02:55.020Z,7.47
2018-07-26T12:05:22.887Z,7.50
2018-07-26T12:07:51.397Z,7.43
2018-07-26T12:10:19.219Z,6.60
2018-07-26T12:12:46.954Z,7.60
2018-07-26T12:15:15.403Z,7.50
2018-07-26T12:17:43.344Z,7.10
2018-07-26T12:20:11.286Z,6.90
2018-07-26T12:22:39.181Z,6.90
2018-07-26T12:25:07.097Z,6.40
2018-07-26T12:27:34.895Z,7.00
2018-07-26T12:30:02.677Z,7.10
2018-07-26T12:32:30.511Z,6.80
2018-07-26T12:35:01.608Z,8.00
2018-07-26T12:37:29.526Z,7.20
2018-07-26T12:39:57.377Z,7.70
2018-07-26T12:42:25.197Z,6.90
2018-07-26T12:44:52.984Z,7.57
2018-07-26T12:47:20.910Z,7.53
2018-07-26T12:49:48.771Z,7.43
2018-07-26T12:52:18.482Z,7.77
2018-07-26T12:54:46.312Z,7.60
2018-07-26T12:57:14.219Z,8.03
2018-07-26T12:59:42.059Z,7.90
2018-07-26T13:02:09.897Z,7.10
2018-07-26T13:04:37.668Z,7.40
2018-07-26T13:07:05.485Z,7.23
2018-07-26T13:09:33.344Z,7.40
2018-07-26T13:12:01.192Z,7.03
2018-07-26T13:14:29.038Z,8.23
2018-07-26T13:16:56.897Z,7.70
2018-07-26T13:19:24.860Z,6.93
2018-07-26T13:21:52.714Z,7.30
2018-07-26T13:24:20.664Z,8.07
2018-07-26T13:26:48.474Z,7.17
2018-07-26T13:29:16.206Z,7.70
2018-07-26T13:31:44.068Z,7.07
2018-07-26T13:34:11.917Z,7.70
2018-07-26T13:36:39.818Z,7.30
2018-07-26T13:39:10.637Z,7.30
2018-07-26T13:41:38.427Z,7.20
2018-07-26T13:44:06.163Z,7.67
2018-07-26T13:46:34.028Z,7.23
2018-07-26T13:49:01.777Z,6.80
2018-07-26T13:51:29.696Z,6.93
2018-07-26T13:53:57.432Z,7.10
2018-07-26T13:56:25.348Z,7.50
2018-07-26T13:58:53.219Z,6.90
2018-07-26T14:01:21.068Z,7.33
2018-07-26T14:03:49.162Z,7.10
2018-07-26T14:06:17.033Z,7.53
2018-07-26T14:08:45.041Z,7.60
2018-07-26T14:11:12.817Z,7.90
2018-07-26T14:13:40.717Z,7.77
2018-07-26T14:16:08.699Z,7.87
2018-07-26T14:18:36.742Z,7.73
2018-07-26T14:21:04.616Z,7.20
2018-07-26T14:23:38.314Z,7.70
2018-07-26T14:26:07.303Z,7.10
2018-07-26T14:28:35.172Z,7.00
2018-07-26T14:31:03.043Z,6.23
2018-07-26T14:33:30.904Z,6.40
2018-07-26T14:35:58.697Z,6.80
2018-07-26T14:38:26.606Z,6.07
2018-07-26T14:40:54.473Z,6.40
2018-07-26T14:43:22.306Z,6.77
2018-07-26T14:45:50.244Z,6.67
2018-07-26T14:48:18.197Z,6.33
2018-07-26T14:50:46.016Z,7.03
2018-07-26T14:53:13.848Z,6.83
2018-07-26T14:55:42.093Z,6.93
2018-07-26T14:58:09.869Z,6.23
2018-07-26T15:00:37.756Z,6.90
2018-07-26T15:03:05.703Z,7.10
2018-07-26T15:05:33.534Z,7.20
2018-07-26T15:08:01.349Z,7.03
2018-07-26T15:10:29.182Z,6.80
2018-07-26T15:12:57.059Z,6.67
2018-07-26T15:15:24.949Z,6.83
2018-07-26T15:17:52.839Z,6.83
2018-07-26T15:20:20.702Z,6.17
2018-07-26T15:22:48.475Z,6.37
2018-07-26T15:25:22.022Z,5.80
2018-07-26T15:27:49.921Z,6.03
2018-07-26T15:30:17.857Z,5.83
2018-07-26T15:32:45.754Z,6.07
2018-07-26T15:35:13.542Z,6.03
2018-07-26T15:37:41.784Z,5.83
2018-07-26T15:40:09.577Z,5.60
2018-07-26T15:42:37.533Z,6.00
2018-07-26T15:45:05.826Z,5.05
2018-07-26T15:47:33.714Z,5.85
2018-07-26T15:50:01.584Z,5.78
2018-07-26T15:52:29.470Z,5.87
2018-07-26T15:54:57.287Z,5.70
2018-07-26T15:57:25.135Z,5.12
2018-07-26T15:59:52.935Z,5.70
2018-07-26T16:02:20.711Z,5.60
2018-07-26T16:04:48.466Z,5.87
2018-07-26T16:07:16.226Z,5.05
2018-07-26T16:09:44.607Z,5.30
2018-07-26T16:12:12.588Z,5.37
2018-07-26T16:14:40.528Z,5.62
2018-07-26T16:17:08.474Z,5.20
2018-07-26T16:19:36.332Z,5.80
2018-07-26T16:22:04.175Z,6.22
2018-07-26T16:24:32.104Z,6.17
2018-07-26T16:26:59.877Z,5.65
2018-07-26T16:29:27.908Z,5.00
2018-07-26T16:31:55.770Z,5.85
2018-07-26T16:34:23.646Z,5.62
2018-07-26T16:36:51.573Z,5.80
2018-07-26T16:39:19.532Z,5.95
2018-07-26T16:41:47.450Z,6.28
2018-07-26T16:44:15.245Z,5.62
2018-07-26T16:46:43.079Z,5.80
2018-07-26T16:49:10.917Z,6.55
2018-07-26T16:51:38.780Z,6.15
2018-07-26T16:54:06.647Z,6.37
2018-07-26T16:56:34.492Z,6.17
2018-07-26T16:59:02.629Z,6.47
2018-07-26T17:01:30.403Z,6.05
2018-07-26T17:03:58.323Z,5.83
2018-07-26T17:06:26.124Z,5.97
2018-07-26T17:08:53.949Z,6.10
2018-07-26T17:11:21.873Z,6.95
2018-07-26T17:13:49.916Z,6.35
2018-07-26T17:16:17.822Z,6.15
2018-07-26T17:18:45.761Z,6.75
2018-07-26T17:21:13.488Z,7.00
2018-07-26T17:23:41.407Z,6.42
2018-07-26T17:26:09.272Z,6.35
2018-07-26T17:28:37.045Z,5.70
2018-07-26T17:31:04.876Z,6.20
2018-07-26T17:33:32.706Z,7.03
2018-07-26T17:36:00.568Z,6.55
2018-07-26T17:38:28.443Z,6.25
2018-07-26T17:40:56.283Z,7.12
2018-07-26T17:43:24.382Z,6.13
2018-07-26T17:45:52.232Z,6.55
2018-07-26T17:48:20.076Z,6.42
2018-07-26T17:50:47.959Z,6.77
2018-07-26T17:53:15.806Z,6.70
2018-07-26T17:55:43.636Z,6.47
2018-07-26T17:58:11.376Z,6.50
2018-07-26T18:00:39.190Z,6.47
2018-07-26T18:03:06.920Z,6.78
2018-07-26T18:05:34.782Z,6.45
2018-07-26T18:08:02.542Z,6.92
2018-07-26T18:10:30.375Z,7.00
2018-07-26T18:12:58.234Z,6.50
2018-07-26T18:15:26.136Z,6.40
2018-07-26T18:17:53.975Z,6.27
2018-07-26T18:20:21.835Z,6.93
2018-07-26T18:22:49.668Z,10.73
2018-07-26T18:25:17.599Z,6.70
2018-07-26T18:27:45.514Z,7.70
2018-07-26T18:30:13.464Z,7.13
2018-07-26T18:32:41.315Z,22.67
2018-07-26T18:35:09.195Z,25.10
2018-07-26T18:37:36.949Z,50.50
2018-07-26T18:40:05.263Z,11.13
2018-07-26T18:42:33.322Z,18.80
2018-07-26T18:45:01.207Z,26.73
2018-07-26T18:47:29.036Z,13.30
2018-07-26T18:49:56.960Z,8.47
2018-07-26T18:52:24.574Z,7.20
2018-07-26T18:54:52.657Z,7.03
2018-07-26T18:57:20.313Z,8.20
2018-07-26T18:59:47.998Z,6.93
2018-07-26T19:02:15.554Z,6.60
2018-07-26T19:04:43.188Z,7.00
2018-07-26T19:07:10.810Z,6.93
2018-07-26T19:09:38.378Z,6.40
2018-07-26T19:12:05.981Z,6.90
2018-07-26T19:14:33.875Z,7.13
2018-07-26T19:17:01.589Z,6.70
2018-07-26T19:19:29.208Z,7.63
2018-07-26T19:21:56.746Z,8.20
2018-07-26T19:24:24.318Z,15.87
2018-07-26T19:26:51.887Z,14.80
2018-07-26T19:29:19.475Z,8.17
2018-07-26T19:31:47.081Z,7.73
2018-07-26T19:34:14.620Z,7.40
2018-07-26T19:36:42.347Z,7.50
2018-07-26T19:39:11.587Z,7.80
2018-07-26T19:41:39.485Z,7.50
2018-07-26T19:44:07.105Z,7.70
2018-07-26T19:46:34.682Z,8.03
2018-07-26T19:49:03.321Z,8.17
2018-07-26T19:51:31.082Z,7.63
2018-07-26T19:53:58.747Z,7.77
2018-07-26T19:56:26.315Z,8.07
2018-07-26T19:58:53.820Z,8.03
2018-07-26T20:01:21.359Z,7.80
2018-07-26T20:03:48.952Z,7.60
2018-07-26T20:06:16.753Z,8.37
2018-07-26T20:08:44.376Z,8.43
2018-07-26T20:11:12.048Z,7.87
2018-07-26T20:13:39.486Z,7.27
2018-07-26T20:16:07.234Z,8.20
2018-07-26T20:18:34.747Z,7.23
2018-07-26T20:21:02.338Z,7.60
2018-07-26T20:23:29.866Z,8.13
2018-07-26T20:25:57.479Z,8.37
2018-07-26T20:28:25.028Z,7.80
2018-07-26T20:30:52.580Z,8.50
2018-07-26T20:33:20.172Z,8.70
2018-07-26T20:35:47.966Z,8.20
2018-07-26T20:38:15.524Z,10.10
2018-07-26T20:40:43.079Z,7.83
2018-07-26T20:43:10.600Z,7.80
2018-07-26T20:45:38.126Z,8.57
2018-07-26T20:48:05.784Z,7.97
2018-07-26T20:50:33.395Z,8.47
2018-07-26T20:53:00.900Z,8.43
2018-07-26T20:55:28.451Z,8.53
2018-07-26T20:57:55.992Z,8.70
2018-07-26T21:00:23.522Z,7.70
2018-07-26T21:02:51.053Z,8.27
2018-07-26T21:05:18.725Z,7.97
2018-07-26T21:07:46.224Z,8.13
2018-07-26T21:10:13.809Z,7.70
2018-07-26T21:12:41.405Z,8.00
2018-07-26T21:15:09.499Z,7.87
2018-07-26T21:17:37.082Z,7.57
2018-07-26T21:20:04.784Z,8.63
2018-07-26T21:22:32.396Z,7.43
2018-07-26T21:24:59.952Z,8.10
2018-07-26T21:27:27.508Z,8.30
2018-07-26T21:29:55.012Z,9.00
2018-07-26T21:32:22.632Z,8.10
2018-07-26T21:34:50.134Z,8.60
2018-07-26T21:37:17.655Z,8.10
2018-07-26T21:39:45.306Z,8.97
2018-07-26T21:42:12.918Z,8.33
2018-07-26T21:44:40.507Z,8.67
2018-07-26T21:47:08.201Z,9.93
2018-07-26T21:49:35.717Z,9.03
2018-07-26T21:52:03.265Z,8.47
2018-07-26T21:54:30.822Z,7.57
2018-07-26T21:56:58.381Z,8.50
2018-07-26T21:59:25.998Z,7.40
2018-07-26T22:01:53.580Z,8.50
2018-07-26T22:04:21.204Z,8.07
2018-07-26T22:06:48.817Z,7.87
2018-07-26T22:09:16.395Z,8.30
2018-07-26T22:11:43.953Z,8.30
2018-07-26T22:14:11.623Z,8.83
2018-07-26T22:16:39.605Z,8.20
2018-07-26T22:19:07.283Z,8.60
2018-07-26T22:21:34.886Z,8.00
2018-07-26T22:24:02.468Z,7.93
2018-07-26T22:26:30.049Z,8.80
2018-07-26T22:28:57.836Z,8.50
2018-07-26T22:31:25.413Z,8.80
2018-07-26T22:33:53.562Z,8.83
2018-07-26T22:36:21.158Z,8.27
2018-07-26T22:38:49.577Z,8.60
2018-07-26T22:41:17.135Z,8.50
2018-07-26T22:43:44.613Z,8.73
2018-07-26T22:46:12.252Z,8.50
2018-07-26T22:48:40.015Z,8.87
2018-07-26T22:51:07.564Z,8.70
2018-07-26T22:53:35.080Z,8.90
2018-07-26T22:56:02.622Z,7.80
2018-07-26T22:58:30.136Z,9.10
2018-07-26T23:00:57.682Z,8.00
2018-07-26T23:03:25.174Z,9.37
2018-07-26T23:05:52.720Z,9.17
2018-07-26T23:08:20.224Z,8.53
2018-07-26T23:10:47.735Z,8.40
2018-07-26T23:13:15.310Z,9.60
2018-07-26T23:15:42.795Z,8.27
2018-07-26T23:18:10.288Z,8.77
2018-07-26T23:20:37.764Z,8.80
2018-07-26T23:23:05.299Z,8.70
2018-07-26T23:25:32.824Z,8.87
2018-07-26T23:28:00.361Z,8.13
2018-07-26T23:30:27.884Z,9.80
2018-07-26T23:32:55.455Z,8.97
2018-07-26T23:35:23.038Z,8.70
2018-07-26T23:37:50.562Z,8.90
2018-07-26T23:40:18.058Z,8.60
2018-07-26T23:42:45.671Z,9.47
2018-07-26T23:45:13.156Z,9.33
2018-07-26T23:47:40.659Z,8.47
2018-07-26T23:50:08.192Z,9.50
2018-07-26T23:52:35.717Z,8.87
2018-07-26T23:55:03.287Z,8.83
2018-07-26T23:57:30.804Z,8.57
2018-07-26T23:59:58.289Z,9.67
